sensor_id;sensor_type;location;lat;lon;timestamp;P1;durP1;ratioP1;P2;durP2;ratioP2
35576;SDS011;21680;52.400;16.920;2023-07-16T00:00:33;4.20;;;3.00;;
35576;SDS011;21680;52.400;16.920;2023-07-16T00:02:58;6.80;;;3.40;;
35576;SDS011;21680;52.400;16.920;2023-07-16T00:05:23;6.40;;;3.50;;
35576;SDS011;21680;52.400;16.920;2023-07-16T00:07:49;8.00;;;3.00;;
35576;SDS011;21680;52.400;16.920;2023-07-16T00:10:14;6.30;;;3.20;;
35576;SDS011;21680;52.400;16.920;2023-07-16T00:12:40;6.20;;;3.60;;
35576;SDS011;21680;52.400;16.920;2023-07-16T00:15:05;4.60;;;3.50;;
35576;SDS011;21680;52.400;16.920;2023-07-16T00:17:32;8.00;;;3.50;;
35576;SDS011;21680;52.400;16.920;2023-07-16T00:19:58;15.80;;;4.20;;
35576;SDS011;21680;52.400;16.920;2023-07-16T00:22:23;9.10;;;4.30;;
35576;SDS011;21680;52.400;16.920;2023-07-16T00:24:49;8.40;;;4.60;;
35576;SDS011;21680;52.400;16.920;2023-07-16T00:27:14;5.80;;;3.60;;
35576;SDS011;21680;52.400;16.920;2023-07-16T00:29:40;6.50;;;3.30;;
35576;SDS011;21680;52.400;16.920;2023-07-16T00:32:05;5.00;;;3.30;;
35576;SDS011;21680;52.400;16.920;2023-07-16T00:34:30;4.10;;;3.30;;
35576;SDS011;21680;52.400;16.920;2023-07-16T00:36:56;6.60;;;3.80;;
35576;SDS011;21680;52.400;16.920;2023-07-16T00:39:26;6.60;;;3.60;;
35576;SDS011;21680;52.400;16.920;2023-07-16T00:41:53;5.60;;;3.00;;
35576;SDS011;21680;52.400;16.920;2023-07-16T00:44:18;8.50;;;3.50;;
35576;SDS011;21680;52.400;16.920;2023-07-16T00:46:43;5.00;;;3.50;;
35576;SDS011;21680;52.400;16.920;2023-07-16T00:49:08;6.50;;;4.60;;
35576;SDS011;21680;52.400;16.920;2023-07-16T00:51:34;9.00;;;4.90;;
35576;SDS011;21680;52.400;16.920;2023-07-16T00:53:59;6.80;;;4.20;;
35576;SDS011;21680;52.400;16.920;2023-07-16T00:56:26;6.90;;;3.50;;
35576;SDS011;21680;52.400;16.920;2023-07-16T00:58:52;4.50;;;3.50;;
35576;SDS011;21680;52.400;16.920;2023-07-16T01:01:17;7.20;;;4.00;;
35576;SDS011;21680;52.400;16.920;2023-07-16T01:03:42;8.40;;;3.70;;
35576;SDS011;21680;52.400;16.920;2023-07-16T01:08:47;6.60;;;4.00;;
35576;SDS011;21680;52.400;16.920;2023-07-16T01:11:23;6.60;;;4.10;;
35576;SDS011;21680;52.400;16.920;2023-07-16T01:13:49;6.70;;;3.90;;
35576;SDS011;21680;52.400;16.920;2023-07-16T01:16:21;5.70;;;3.70;;
35576;SDS011;21680;52.400;16.920;2023-07-16T01:18:48;6.20;;;4.40;;
35576;SDS011;21680;52.400;16.920;2023-07-16T01:21:15;7.90;;;3.60;;
35576;SDS011;21680;52.400;16.920;2023-07-16T01:23:50;10.20;;;4.20;;
35576;SDS011;21680;52.400;16.920;2023-07-16T01:26:32;9.90;;;4.40;;
35576;SDS011;21680;52.400;16.920;2023-07-16T01:31:53;11.20;;;4.20;;
35576;SDS011;21680;52.400;16.920;2023-07-16T01:34:20;9.60;;;5.40;;
35576;SDS011;21680;52.400;16.920;2023-07-16T01:36:46;11.40;;;6.90;;
35576;SDS011;21680;52.400;16.920;2023-07-16T01:39:11;7.00;;;5.10;;
35576;SDS011;21680;52.400;16.920;2023-07-16T01:41:37;8.90;;;4.40;;
35576;SDS011;21680;52.400;16.920;2023-07-16T01:44:03;10.40;;;4.50;;
35576;SDS011;21680;52.400;16.920;2023-07-16T01:46:28;9.60;;;4.00;;
35576;SDS011;21680;52.400;16.920;2023-07-16T01:48:54;4.70;;;3.60;;
35576;SDS011;21680;52.400;16.920;2023-07-16T01:51:20;10.90;;;4.50;;
35576;SDS011;21680;52.400;16.920;2023-07-16T01:53:45;12.10;;;4.10;;
35576;SDS011;21680;52.400;16.920;2023-07-16T01:56:11;7.20;;;4.20;;
35576;SDS011;21680;52.400;16.920;2023-07-16T01:58:37;8.20;;;4.60;;
35576;SDS011;21680;52.400;16.920;2023-07-16T02:01:02;12.60;;;4.00;;
35576;SDS011;21680;52.400;16.920;2023-07-16T02:03:27;7.00;;;4.00;;
35576;SDS011;21680;52.400;16.920;2023-07-16T02:05:53;7.20;;;4.10;;
35576;SDS011;21680;52.400;16.920;2023-07-16T02:08:18;6.60;;;4.00;;
35576;SDS011;21680;52.400;16.920;2023-07-16T02:10:43;7.50;;;4.10;;
35576;SDS011;21680;52.400;16.920;2023-07-16T02:13:09;14.10;;;4.30;;
35576;SDS011;21680;52.400;16.920;2023-07-16T02:15:34;7.30;;;4.30;;
35576;SDS011;21680;52.400;16.920;2023-07-16T02:18:00;7.70;;;3.60;;
35576;SDS011;21680;52.400;16.920;2023-07-16T02:20:25;10.00;;;4.00;;
35576;SDS011;21680;52.400;16.920;2023-07-16T02:22:50;12.90;;;4.00;;
35576;SDS011;21680;52.400;16.920;2023-07-16T02:25:15;5.10;;;3.70;;
35576;SDS011;21680;52.400;16.920;2023-07-16T02:27:41;7.10;;;3.90;;
35576;SDS011;21680;52.400;16.920;2023-07-16T02:30:06;8.70;;;4.20;;
35576;SDS011;21680;52.400;16.920;2023-07-16T02:32:32;8.70;;;4.60;;
35576;SDS011;21680;52.400;16.920;2023-07-16T02:34:58;7.10;;;4.60;;
35576;SDS011;21680;52.400;16.920;2023-07-16T02:37:23;7.50;;;4.00;;
35576;SDS011;21680;52.400;16.920;2023-07-16T02:39:49;5.90;;;4.50;;
35576;SDS011;21680;52.400;16.920;2023-07-16T02:42:14;8.00;;;4.30;;
35576;SDS011;21680;52.400;16.920;2023-07-16T02:44:39;6.50;;;4.50;;
35576;SDS011;21680;52.400;16.920;2023-07-16T02:47:07;6.00;;;4.10;;
35576;SDS011;21680;52.400;16.920;2023-07-16T02:49:32;5.20;;;4.00;;
35576;SDS011;21680;52.400;16.920;2023-07-16T02:51:58;8.10;;;4.20;;
35576;SDS011;21680;52.400;16.920;2023-07-16T02:54:23;6.70;;;4.30;;
35576;SDS011;21680;52.400;16.920;2023-07-16T02:56:48;7.30;;;4.20;;
35576;SDS011;21680;52.400;16.920;2023-07-16T02:59:13;6.60;;;4.10;;
35576;SDS011;21680;52.400;16.920;2023-07-16T03:01:39;10.00;;;4.70;;
35576;SDS011;21680;52.400;16.920;2023-07-16T03:04:04;4.70;;;4.00;;
35576;SDS011;21680;52.400;16.920;2023-07-16T03:06:29;8.20;;;4.80;;
35576;SDS011;21680;52.400;16.920;2023-07-16T03:08:54;6.40;;;4.30;;
35576;SDS011;21680;52.400;16.920;2023-07-16T03:11:20;5.90;;;4.30;;
35576;SDS011;21680;52.400;16.920;2023-07-16T03:13:45;9.20;;;4.10;;
35576;SDS011;21680;52.400;16.920;2023-07-16T03:16:10;11.40;;;4.70;;
35576;SDS011;21680;52.400;16.920;2023-07-16T03:18:36;5.00;;;4.00;;
35576;SDS011;21680;52.400;16.920;2023-07-16T03:21:02;6.90;;;4.10;;
35576;SDS011;21680;52.400;16.920;2023-07-16T03:23:27;8.00;;;3.90;;
35576;SDS011;21680;52.400;16.920;2023-07-16T03:25:52;6.60;;;4.40;;
35576;SDS011;21680;52.400;16.920;2023-07-16T03:28:17;8.80;;;4.20;;
35576;SDS011;21680;52.400;16.920;2023-07-16T03:30:46;5.60;;;4.00;;
35576;SDS011;21680;52.400;16.920;2023-07-16T03:33:13;6.40;;;4.70;;
35576;SDS011;21680;52.400;16.920;2023-07-16T03:35:38;5.00;;;4.00;;
35576;SDS011;21680;52.400;16.920;2023-07-16T03:38:03;6.90;;;5.40;;
35576;SDS011;21680;52.400;16.920;2023-07-16T03:40:29;8.30;;;4.50;;
35576;SDS011;21680;52.400;16.920;2023-07-16T03:42:55;6.80;;;4.40;;
35576;SDS011;21680;52.400;16.920;2023-07-16T03:45:20;8.10;;;4.80;;
35576;SDS011;21680;52.400;16.920;2023-07-16T03:47:46;9.30;;;4.40;;
35576;SDS011;21680;52.400;16.920;2023-07-16T03:50:11;9.30;;;5.40;;
35576;SDS011;21680;52.400;16.920;2023-07-16T03:52:36;5.40;;;4.10;;
35576;SDS011;21680;52.400;16.920;2023-07-16T03:55:01;6.10;;;4.20;;
35576;SDS011;21680;52.400;16.920;2023-07-16T03:57:28;7.00;;;4.40;;
35576;SDS011;21680;52.400;16.920;2023-07-16T03:59:53;5.40;;;4.10;;
35576;SDS011;21680;52.400;16.920;2023-07-16T04:02:19;9.60;;;4.80;;
35576;SDS011;21680;52.400;16.920;2023-07-16T04:04:44;4.30;;;3.90;;
35576;SDS011;21680;52.400;16.920;2023-07-16T04:07:09;6.90;;;4.10;;
35576;SDS011;21680;52.400;16.920;2023-07-16T04:09:37;7.00;;;4.30;;
35576;SDS011;21680;52.400;16.920;2023-07-16T04:12:03;13.00;;;4.30;;
35576;SDS011;21680;52.400;16.920;2023-07-16T04:14:30;6.70;;;4.30;;
35576;SDS011;21680;52.400;16.920;2023-07-16T04:16:55;11.80;;;4.60;;
35576;SDS011;21680;52.400;16.920;2023-07-16T04:19:20;5.50;;;3.70;;
35576;SDS011;21680;52.400;16.920;2023-07-16T04:21:45;13.70;;;4.20;;
35576;SDS011;21680;52.400;16.920;2023-07-16T04:24:11;8.40;;;4.00;;
35576;SDS011;21680;52.400;16.920;2023-07-16T04:26:36;6.90;;;4.10;;
35576;SDS011;21680;52.400;16.920;2023-07-16T04:29:01;4.40;;;3.90;;
35576;SDS011;21680;52.400;16.920;2023-07-16T04:31:27;7.60;;;4.10;;
35576;SDS011;21680;52.400;16.920;2023-07-16T04:33:52;6.40;;;3.80;;
35576;SDS011;21680;52.400;16.920;2023-07-16T04:36:17;5.70;;;4.00;;
35576;SDS011;21680;52.400;16.920;2023-07-16T04:38:42;10.30;;;4.20;;
35576;SDS011;21680;52.400;16.920;2023-07-16T04:41:08;5.20;;;3.70;;
35576;SDS011;21680;52.400;16.920;2023-07-16T04:43:33;6.50;;;4.50;;
35576;SDS011;21680;52.400;16.920;2023-07-16T04:45:58;9.40;;;4.50;;
35576;SDS011;21680;52.400;16.920;2023-07-16T04:48:23;9.60;;;4.10;;
35576;SDS011;21680;52.400;16.920;2023-07-16T04:50:50;5.60;;;3.80;;
35576;SDS011;21680;52.400;16.920;2023-07-16T04:53:17;3.70;;;3.30;;
35576;SDS011;21680;52.400;16.920;2023-07-16T04:55:43;8.10;;;3.90;;
35576;SDS011;21680;52.400;16.920;2023-07-16T04:58:10;8.00;;;3.70;;
35576;SDS011;21680;52.400;16.920;2023-07-16T05:00:36;3.50;;;3.20;;
35576;SDS011;21680;52.400;16.920;2023-07-16T05:03:02;14.80;;;3.90;;
35576;SDS011;21680;52.400;16.920;2023-07-16T05:05:27;9.10;;;3.90;;
35576;SDS011;21680;52.400;16.920;2023-07-16T05:07:52;8.40;;;3.20;;
35576;SDS011;21680;52.400;16.920;2023-07-16T05:10:18;6.30;;;3.40;;
35576;SDS011;21680;52.400;16.920;2023-07-16T05:12:43;5.00;;;3.10;;
35576;SDS011;21680;52.400;16.920;2023-07-16T05:15:09;5.60;;;3.30;;
35576;SDS011;21680;52.400;16.920;2023-07-16T05:17:34;6.50;;;2.80;;
35576;SDS011;21680;52.400;16.920;2023-07-16T05:19:59;9.80;;;2.70;;
35576;SDS011;21680;52.400;16.920;2023-07-16T05:22:25;4.20;;;3.10;;
35576;SDS011;21680;52.400;16.920;2023-07-16T05:24:50;3.70;;;2.90;;
35576;SDS011;21680;52.400;16.920;2023-07-16T05:27:15;21.30;;;4.20;;
35576;SDS011;21680;52.400;16.920;2023-07-16T05:29:41;9.90;;;3.00;;
35576;SDS011;21680;52.400;16.920;2023-07-16T05:32:06;5.10;;;2.40;;
35576;SDS011;21680;52.400;16.920;2023-07-16T05:34:32;7.00;;;2.70;;
35576;SDS011;21680;52.400;16.920;2023-07-16T05:36:58;11.90;;;2.40;;
35576;SDS011;21680;52.400;16.920;2023-07-16T05:39:23;5.70;;;2.60;;
35576;SDS011;21680;52.400;16.920;2023-07-16T05:41:49;6.30;;;2.50;;
35576;SDS011;21680;52.400;16.920;2023-07-16T05:44:14;7.90;;;2.60;;
35576;SDS011;21680;52.400;16.920;2023-07-16T05:46:39;5.00;;;2.40;;
35576;SDS011;21680;52.400;16.920;2023-07-16T05:49:05;7.50;;;2.60;;
35576;SDS011;21680;52.400;16.920;2023-07-16T05:51:30;11.40;;;2.70;;
35576;SDS011;21680;52.400;16.920;2023-07-16T05:53:55;10.30;;;2.60;;
35576;SDS011;21680;52.400;16.920;2023-07-16T05:56:21;5.70;;;2.60;;
35576;SDS011;21680;52.400;16.920;2023-07-16T05:58:46;3.60;;;2.20;;
35576;SDS011;21680;52.400;16.920;2023-07-16T06:01:11;3.40;;;1.90;;
35576;SDS011;21680;52.400;16.920;2023-07-16T06:03:36;5.30;;;2.20;;
35576;SDS011;21680;52.400;16.920;2023-07-16T06:06:02;10.10;;;2.50;;
35576;SDS011;21680;52.400;16.920;2023-07-16T06:08:27;2.60;;;2.00;;
35576;SDS011;21680;52.400;16.920;2023-07-16T06:10:53;5.00;;;2.40;;
35576;SDS011;21680;52.400;16.920;2023-07-16T06:13:18;2.70;;;2.00;;
35576;SDS011;21680;52.400;16.920;2023-07-16T06:15:43;4.90;;;2.40;;
35576;SDS011;21680;52.400;16.920;2023-07-16T06:18:09;4.20;;;2.10;;
35576;SDS011;21680;52.400;16.920;2023-07-16T06:20:35;3.40;;;1.60;;
35576;SDS011;21680;52.400;16.920;2023-07-16T06:23:00;3.00;;;1.90;;
35576;SDS011;21680;52.400;16.920;2023-07-16T06:25:25;2.30;;;2.10;;
35576;SDS011;21680;52.400;16.920;2023-07-16T06:27:50;2.30;;;2.00;;
35576;SDS011;21680;52.400;16.920;2023-07-16T06:30:16;3.50;;;1.80;;
35576;SDS011;21680;52.400;16.920;2023-07-16T06:32:41;3.40;;;1.90;;
35576;SDS011;21680;52.400;16.920;2023-07-16T06:35:07;2.10;;;1.40;;
35576;SDS011;21680;52.400;16.920;2023-07-16T06:37:33;4.80;;;2.00;;
35576;SDS011;21680;52.400;16.920;2023-07-16T06:39:58;3.00;;;1.60;;
35576;SDS011;21680;52.400;16.920;2023-07-16T06:42:23;2.30;;;1.60;;
35576;SDS011;21680;52.400;16.920;2023-07-16T06:44:48;6.70;;;2.50;;
35576;SDS011;21680;52.400;16.920;2023-07-16T06:47:14;3.00;;;1.60;;
35576;SDS011;21680;52.400;16.920;2023-07-16T06:49:40;1.60;;;1.40;;
35576;SDS011;21680;52.400;16.920;2023-07-16T06:52:05;3.20;;;2.30;;
35576;SDS011;21680;52.400;16.920;2023-07-16T06:54:31;3.30;;;1.60;;
35576;SDS011;21680;52.400;16.920;2023-07-16T06:56:56;2.80;;;1.70;;
35576;SDS011;21680;52.400;16.920;2023-07-16T06:59:21;2.20;;;1.70;;
35576;SDS011;21680;52.400;16.920;2023-07-16T07:01:47;1.80;;;1.70;;
35576;SDS011;21680;52.400;16.920;2023-07-16T07:04:12;2.00;;;1.50;;
35576;SDS011;21680;52.400;16.920;2023-07-16T07:06:37;2.60;;;1.40;;
35576;SDS011;21680;52.400;16.920;2023-07-16T07:09:03;3.50;;;1.50;;
35576;SDS011;21680;52.400;16.920;2023-07-16T07:11:28;4.70;;;1.50;;
35576;SDS011;21680;52.400;16.920;2023-07-16T07:13:54;5.10;;;2.10;;
35576;SDS011;21680;52.400;16.920;2023-07-16T07:16:19;3.70;;;1.80;;
35576;SDS011;21680;52.400;16.920;2023-07-16T07:18:44;1.90;;;1.50;;
35576;SDS011;21680;52.400;16.920;2023-07-16T07:21:10;2.40;;;1.50;;
35576;SDS011;21680;52.400;16.920;2023-07-16T07:23:35;1.50;;;1.40;;
35576;SDS011;21680;52.400;16.920;2023-07-16T07:26:00;1.30;;;1.20;;
35576;SDS011;21680;52.400;16.920;2023-07-16T07:28:26;3.40;;;1.20;;
35576;SDS011;21680;52.400;16.920;2023-07-16T07:30:51;1.60;;;1.40;;
35576;SDS011;21680;52.400;16.920;2023-07-16T07:33:17;2.40;;;1.70;;
35576;SDS011;21680;52.400;16.920;2023-07-16T07:35:42;1.40;;;1.30;;
35576;SDS011;21680;52.400;16.920;2023-07-16T07:38:07;4.50;;;1.90;;
35576;SDS011;21680;52.400;16.920;2023-07-16T07:40:32;3.20;;;1.70;;
35576;SDS011;21680;52.400;16.920;2023-07-16T07:42:57;3.40;;;1.30;;
35576;SDS011;21680;52.400;16.920;2023-07-16T07:45:23;1.90;;;1.70;;
35576;SDS011;21680;52.400;16.920;2023-07-16T07:47:49;4.70;;;1.90;;
35576;SDS011;21680;52.400;16.920;2023-07-16T07:50:14;4.10;;;1.70;;
35576;SDS011;21680;52.400;16.920;2023-07-16T07:52:40;4.20;;;1.70;;
35576;SDS011;21680;52.400;16.920;2023-07-16T07:55:05;1.90;;;1.80;;
35576;SDS011;21680;52.400;16.920;2023-07-16T07:57:31;4.70;;;1.80;;
35576;SDS011;21680;52.400;16.920;2023-07-16T07:59:56;2.50;;;1.60;;
35576;SDS011;21680;52.400;16.920;2023-07-16T08:02:23;1.70;;;1.60;;
35576;SDS011;21680;52.400;16.920;2023-07-16T08:04:52;6.10;;;2.00;;
35576;SDS011;21680;52.400;16.920;2023-07-16T08:07:20;1.60;;;1.40;;
35576;SDS011;21680;52.400;16.920;2023-07-16T08:09:47;1.80;;;1.70;;
35576;SDS011;21680;52.400;16.920;2023-07-16T08:12:13;4.10;;;1.50;;
35576;SDS011;21680;52.400;16.920;2023-07-16T08:14:38;3.60;;;1.40;;
35576;SDS011;21680;52.400;16.920;2023-07-16T08:17:04;1.30;;;1.20;;
35576;SDS011;21680;52.400;16.920;2023-07-16T08:19:30;2.20;;;1.20;;
35576;SDS011;21680;52.400;16.920;2023-07-16T08:21:55;2.40;;;1.40;;
35576;SDS011;21680;52.400;16.920;2023-07-16T08:24:20;3.90;;;1.20;;
35576;SDS011;21680;52.400;16.920;2023-07-16T08:26:46;2.80;;;1.30;;
35576;SDS011;21680;52.400;16.920;2023-07-16T08:29:11;7.20;;;1.70;;
35576;SDS011;21680;52.400;16.920;2023-07-16T08:31:36;2.20;;;1.60;;
35576;SDS011;21680;52.400;16.920;2023-07-16T08:34:02;8.40;;;2.00;;
35576;SDS011;21680;52.400;16.920;2023-07-16T08:36:27;4.00;;;1.60;;
35576;SDS011;21680;52.400;16.920;2023-07-16T08:38:52;2.50;;;1.50;;
35576;SDS011;21680;52.400;16.920;2023-07-16T08:41:17;7.20;;;1.40;;
35576;SDS011;21680;52.400;16.920;2023-07-16T08:43:44;2.50;;;2.00;;
35576;SDS011;21680;52.400;16.920;2023-07-16T08:46:12;3.30;;;1.90;;
35576;SDS011;21680;52.400;16.920;2023-07-16T08:48:38;2.80;;;1.70;;
35576;SDS011;21680;52.400;16.920;2023-07-16T08:51:03;8.50;;;2.00;;
35576;SDS011;21680;52.400;16.920;2023-07-16T08:53:31;3.00;;;1.80;;
35576;SDS011;21680;52.400;16.920;2023-07-16T08:55:56;2.60;;;1.70;;
35576;SDS011;21680;52.400;16.920;2023-07-16T08:58:23;2.90;;;2.10;;
35576;SDS011;21680;52.400;16.920;2023-07-16T09:00:49;2.80;;;2.00;;
35576;SDS011;21680;52.400;16.920;2023-07-16T09:03:16;5.30;;;2.00;;
35576;SDS011;21680;52.400;16.920;2023-07-16T09:05:43;3.20;;;2.00;;
35576;SDS011;21680;52.400;16.920;2023-07-16T09:08:09;2.60;;;2.00;;
35576;SDS011;21680;52.400;16.920;2023-07-16T09:10:34;3.60;;;2.20;;
35576;SDS011;21680;52.400;16.920;2023-07-16T09:13:00;5.00;;;2.30;;
35576;SDS011;21680;52.400;16.920;2023-07-16T09:15:26;7.90;;;2.40;;
35576;SDS011;21680;52.400;16.920;2023-07-16T09:17:54;3.80;;;2.00;;
35576;SDS011;21680;52.400;16.920;2023-07-16T09:20:20;8.60;;;2.70;;
35576;SDS011;21680;52.400;16.920;2023-07-16T09:22:47;5.10;;;2.40;;
35576;SDS011;21680;52.400;16.920;2023-07-16T09:25:12;2.40;;;2.00;;
35576;SDS011;21680;52.400;16.920;2023-07-16T09:27:38;3.10;;;2.20;;
35576;SDS011;21680;52.400;16.920;2023-07-16T09:30:04;4.50;;;2.20;;
35576;SDS011;21680;52.400;16.920;2023-07-16T09:35:11;2.60;;;2.30;;
35576;SDS011;21680;52.400;16.920;2023-07-16T09:37:37;3.00;;;2.20;;
35576;SDS011;21680;52.400;16.920;2023-07-16T09:40:07;4.80;;;1.90;;
35576;SDS011;21680;52.400;16.920;2023-07-16T09:42:37;5.80;;;1.90;;
35576;SDS011;21680;52.400;16.920;2023-07-16T09:45:08;2.40;;;2.20;;
35576;SDS011;21680;52.400;16.920;2023-07-16T09:47:42;2.20;;;2.00;;
35576;SDS011;21680;52.400;16.920;2023-07-16T09:50:08;4.60;;;2.20;;
35576;SDS011;21680;52.400;16.920;2023-07-16T09:52:34;1.90;;;1.70;;
35576;SDS011;21680;52.400;16.920;2023-07-16T09:55:01;3.40;;;1.60;;
35576;SDS011;21680;52.400;16.920;2023-07-16T09:57:28;2.00;;;1.80;;
35576;SDS011;21680;52.400;16.920;2023-07-16T10:00:00;2.10;;;1.90;;
35576;SDS011;21680;52.400;16.920;2023-07-16T10:02:35;3.00;;;2.10;;
35576;SDS011;21680;52.400;16.920;2023-07-16T10:05:18;2.50;;;2.00;;
35576;SDS011;21680;52.400;16.920;2023-07-16T10:07:49;3.30;;;2.00;;
35576;SDS011;21680;52.400;16.920;2023-07-16T10:10:17;4.40;;;1.90;;
35576;SDS011;21680;52.400;16.920;2023-07-16T10:12:42;5.80;;;2.00;;
35576;SDS011;21680;52.400;16.920;2023-07-16T10:15:08;5.40;;;1.80;;
35576;SDS011;21680;52.400;16.920;2023-07-16T10:17:36;6.90;;;1.70;;
35576;SDS011;21680;52.400;16.920;2023-07-16T10:22:33;3.40;;;2.00;;
35576;SDS011;21680;52.400;16.920;2023-07-16T10:25:01;3.00;;;2.20;;
35576;SDS011;21680;52.400;16.920;2023-07-16T10:27:33;2.40;;;1.90;;
35576;SDS011;21680;52.400;16.920;2023-07-16T10:30:00;2.10;;;1.30;;
35576;SDS011;21680;52.400;16.920;2023-07-16T10:32:30;4.00;;;1.80;;
35576;SDS011;21680;52.400;16.920;2023-07-16T10:34:57;3.20;;;1.80;;
35576;SDS011;21680;52.400;16.920;2023-07-16T10:37:23;1.90;;;1.40;;
35576;SDS011;21680;52.400;16.920;2023-07-16T10:39:53;2.20;;;1.80;;
35576;SDS011;21680;52.400;16.920;2023-07-16T10:42:20;2.10;;;1.90;;
35576;SDS011;21680;52.400;16.920;2023-07-16T10:44:48;5.30;;;1.60;;
35576;SDS011;21680;52.400;16.920;2023-07-16T10:47:34;1.40;;;1.30;;
35576;SDS011;21680;52.400;16.920;2023-07-16T10:50:03;2.30;;;1.80;;
35576;SDS011;21680;52.400;16.920;2023-07-16T10:52:30;2.50;;;1.90;;
35576;SDS011;21680;52.400;16.920;2023-07-16T10:54:55;4.00;;;1.50;;
35576;SDS011;21680;52.400;16.920;2023-07-16T10:57:22;3.50;;;1.60;;
35576;SDS011;21680;52.400;16.920;2023-07-16T10:59:48;2.80;;;1.40;;
35576;SDS011;21680;52.400;16.920;2023-07-16T11:02:15;2.80;;;1.30;;
35576;SDS011;21680;52.400;16.920;2023-07-16T11:04:42;2.50;;;1.50;;
35576;SDS011;21680;52.400;16.920;2023-07-16T11:07:09;2.10;;;1.70;;
35576;SDS011;21680;52.400;16.920;2023-07-16T11:12:12;2.50;;;1.60;;
35576;SDS011;21680;52.400;16.920;2023-07-16T11:14:39;1.20;;;1.10;;
35576;SDS011;21680;52.400;16.920;2023-07-16T11:17:09;2.80;;;1.60;;
35576;SDS011;21680;52.400;16.920;2023-07-16T11:19:35;2.20;;;1.60;;
35576;SDS011;21680;52.400;16.920;2023-07-16T11:22:03;4.20;;;1.70;;
35576;SDS011;21680;52.400;16.920;2023-07-16T11:24:40;1.90;;;1.80;;
35576;SDS011;21680;52.400;16.920;2023-07-16T11:27:17;1.90;;;1.30;;
35576;SDS011;21680;52.400;16.920;2023-07-16T11:29:49;1.60;;;1.50;;
35576;SDS011;21680;52.400;16.920;2023-07-16T11:35:10;4.40;;;1.30;;
35576;SDS011;21680;52.400;16.920;2023-07-16T11:37:40;1.80;;;1.40;;
35576;SDS011;21680;52.400;16.920;2023-07-16T11:40:06;1.50;;;1.40;;
35576;SDS011;21680;52.400;16.920;2023-07-16T11:42:34;3.60;;;1.80;;
35576;SDS011;21680;52.400;16.920;2023-07-16T11:45:00;1.50;;;1.20;;
35576;SDS011;21680;52.400;16.920;2023-07-16T11:47:27;3.70;;;1.60;;
35576;SDS011;21680;52.400;16.920;2023-07-16T11:49:52;2.40;;;1.80;;
35576;SDS011;21680;52.400;16.920;2023-07-16T11:52:19;3.40;;;1.60;;
35576;SDS011;21680;52.400;16.920;2023-07-16T11:54:52;3.50;;;1.70;;
35576;SDS011;21680;52.400;16.920;2023-07-16T11:57:18;1.80;;;1.70;;
35576;SDS011;21680;52.400;16.920;2023-07-16T11:59:43;2.00;;;1.40;;
35576;SDS011;21680;52.400;16.920;2023-07-16T12:02:08;3.10;;;1.50;;
35576;SDS011;21680;52.400;16.920;2023-07-16T12:04:34;2.90;;;1.50;;
35576;SDS011;21680;52.400;16.920;2023-07-16T12:06:59;1.90;;;1.60;;
35576;SDS011;21680;52.400;16.920;2023-07-16T12:09:25;2.40;;;1.50;;
35576;SDS011;21680;52.400;16.920;2023-07-16T12:11:50;4.00;;;1.80;;
35576;SDS011;21680;52.400;16.920;2023-07-16T12:14:16;4.20;;;1.40;;
35576;SDS011;21680;52.400;16.920;2023-07-16T12:16:41;2.30;;;1.70;;
35576;SDS011;21680;52.400;16.920;2023-07-16T12:19:07;2.30;;;1.70;;
35576;SDS011;21680;52.400;16.920;2023-07-16T12:21:33;5.30;;;1.70;;
35576;SDS011;21680;52.400;16.920;2023-07-16T12:23:58;2.10;;;1.30;;
35576;SDS011;21680;52.400;16.920;2023-07-16T12:26:24;3.00;;;1.50;;
35576;SDS011;21680;52.400;16.920;2023-07-16T12:28:49;2.70;;;1.90;;
35576;SDS011;21680;52.400;16.920;2023-07-16T12:31:15;1.70;;;1.60;;
35576;SDS011;21680;52.400;16.920;2023-07-16T12:33:41;1.50;;;1.40;;
35576;SDS011;21680;52.400;16.920;2023-07-16T12:36:07;3.30;;;1.40;;
35576;SDS011;21680;52.400;16.920;2023-07-16T12:38:32;1.80;;;1.70;;
35576;SDS011;21680;52.400;16.920;2023-07-16T12:40:57;2.80;;;1.70;;
35576;SDS011;21680;52.400;16.920;2023-07-16T12:43:23;1.90;;;1.60;;
35576;SDS011;21680;52.400;16.920;2023-07-16T12:45:48;4.30;;;1.20;;
35576;SDS011;21680;52.400;16.920;2023-07-16T12:48:13;2.30;;;2.10;;
35576;SDS011;21680;52.400;16.920;2023-07-16T12:50:38;3.40;;;1.60;;
35576;SDS011;21680;52.400;16.920;2023-07-16T12:53:04;2.10;;;1.40;;
35576;SDS011;21680;52.400;16.920;2023-07-16T12:55:29;4.00;;;1.40;;
35576;SDS011;21680;52.400;16.920;2023-07-16T12:57:56;1.40;;;1.30;;
35576;SDS011;21680;52.400;16.920;2023-07-16T13:00:21;2.40;;;1.40;;
35576;SDS011;21680;52.400;16.920;2023-07-16T13:02:46;2.80;;;1.50;;
35576;SDS011;21680;52.400;16.920;2023-07-16T13:05:11;3.40;;;1.70;;
35576;SDS011;21680;52.400;16.920;2023-07-16T13:07:37;1.80;;;1.20;;
35576;SDS011;21680;52.400;16.920;2023-07-16T13:10:02;1.80;;;1.40;;
35576;SDS011;21680;52.400;16.920;2023-07-16T13:12:27;1.80;;;1.70;;
35576;SDS011;21680;52.400;16.920;2023-07-16T13:14:52;4.60;;;1.60;;
35576;SDS011;21680;52.400;16.920;2023-07-16T13:17:18;2.70;;;1.30;;
35576;SDS011;21680;52.400;16.920;2023-07-16T13:19:44;1.40;;;1.30;;
35576;SDS011;21680;52.400;16.920;2023-07-16T13:22:10;1.60;;;1.30;;
35576;SDS011;21680;52.400;16.920;2023-07-16T13:24:35;1.50;;;1.40;;
35576;SDS011;21680;52.400;16.920;2023-07-16T13:27:00;3.00;;;2.00;;
35576;SDS011;21680;52.400;16.920;2023-07-16T13:29:25;2.90;;;1.70;;
35576;SDS011;21680;52.400;16.920;2023-07-16T13:31:51;1.90;;;1.40;;
35576;SDS011;21680;52.400;16.920;2023-07-16T13:34:16;2.00;;;1.80;;
35576;SDS011;21680;52.400;16.920;2023-07-16T13:36:41;1.80;;;1.70;;
35576;SDS011;21680;52.400;16.920;2023-07-16T13:39:06;1.90;;;1.50;;
35576;SDS011;21680;52.400;16.920;2023-07-16T13:41:32;2.50;;;2.20;;
35576;SDS011;21680;52.400;16.920;2023-07-16T13:43:57;3.80;;;1.40;;
35576;SDS011;21680;52.400;16.920;2023-07-16T13:46:22;2.10;;;1.50;;
35576;SDS011;21680;52.400;16.920;2023-07-16T13:48:47;3.50;;;1.40;;
35576;SDS011;21680;52.400;16.920;2023-07-16T13:51:13;2.90;;;1.70;;
35576;SDS011;21680;52.400;16.920;2023-07-16T13:53:38;1.50;;;1.40;;
35576;SDS011;21680;52.400;16.920;2023-07-16T13:56:04;2.40;;;1.60;;
35576;SDS011;21680;52.400;16.920;2023-07-16T13:58:29;1.90;;;1.30;;
35576;SDS011;21680;52.400;16.920;2023-07-16T14:00:54;3.80;;;1.50;;
35576;SDS011;21680;52.400;16.920;2023-07-16T14:03:20;2.80;;;1.60;;
35576;SDS011;21680;52.400;16.920;2023-07-16T14:05:45;2.70;;;1.90;;
35576;SDS011;21680;52.400;16.920;2023-07-16T14:08:10;2.80;;;1.40;;
35576;SDS011;21680;52.400;16.920;2023-07-16T14:10:35;2.50;;;1.50;;
35576;SDS011;21680;52.400;16.920;2023-07-16T14:13:00;2.00;;;1.40;;
35576;SDS011;21680;52.400;16.920;2023-07-16T14:15:26;2.00;;;1.50;;
35576;SDS011;21680;52.400;16.920;2023-07-16T14:17:51;4.60;;;1.40;;
35576;SDS011;21680;52.400;16.920;2023-07-16T14:20:16;2.20;;;1.80;;
35576;SDS011;21680;52.400;16.920;2023-07-16T14:22:42;4.10;;;1.80;;
35576;SDS011;21680;52.400;16.920;2023-07-16T14:25:07;3.20;;;1.70;;
35576;SDS011;21680;52.400;16.920;2023-07-16T14:27:34;1.90;;;1.80;;
35576;SDS011;21680;52.400;16.920;2023-07-16T14:30:00;3.60;;;2.00;;
35576;SDS011;21680;52.400;16.920;2023-07-16T14:32:25;3.10;;;1.90;;
35576;SDS011;21680;52.400;16.920;2023-07-16T14:34:51;2.70;;;1.60;;
35576;SDS011;21680;52.400;16.920;2023-07-16T14:37:16;2.10;;;1.90;;
35576;SDS011;21680;52.400;16.920;2023-07-16T14:39:41;2.30;;;1.80;;
35576;SDS011;21680;52.400;16.920;2023-07-16T14:42:06;2.30;;;1.70;;